CYPL

Pickle Lake Airport

Pickle Lake, Ontario, Canada
METAR CYPL 221700Z 02004KT 300V050 15SM FEW160 BKN240 20/05 A2996 RMK AC1CI4 SLP151 DENSITY ALT 2200FT
Observed Flight Rules
May-22 @ 17:00 UTC (56 minutes ago) Visual Flight Rules
Wind Visibility Clouds
20° at 4 knots 15 miles
  • Few at 16,000' AGL
  • Broken at 24,000' AGL
Temperatures Readings
Current 20°C / 68°F
Dewpoint 5°C / 41°F
Humidity 38%
Altimeter 29.96" Hg
Pressure 1015.1 hPa
Elevation 373
METAR CYPL 221700Z 02004KT 300V050 15SM FEW160 BKN240 20/05 A2996 RMK AC1CI4 SLP151 DENSITY ALT 2200FT
Observed Flight Rules
May-22 @ 17:00 UTC
(56 minutes ago)
VFR
Wind Visibility
20° at 4 knots 15 miles
Clouds
  • Few at 16,000' AGL
  • Broken at 24,000' AGL
Temperature Dewpoint
20°C / 68°F 5°C / 41°F
Humidity Altimeter Pressure
38% 29.96" Hg 1015.1 hPa